createdAt,value
2017-11-08T00:01:03.867Z,17.00
2017-11-08T00:03:31.307Z,16.63
2017-11-08T00:05:58.775Z,15.90
2017-11-08T00:08:26.218Z,16.00
2017-11-08T00:10:54.448Z,16.20
2017-11-08T00:13:21.911Z,16.33
2017-11-08T00:15:51.309Z,16.67
2017-11-08T00:18:18.769Z,17.43
2017-11-08T00:20:46.231Z,16.27
2017-11-08T00:23:13.684Z,18.63
2017-11-08T00:25:41.141Z,17.23
2017-11-08T00:28:08.612Z,17.07
2017-11-08T00:30:36.065Z,16.53
2017-11-08T00:33:03.524Z,17.10
2017-11-08T00:35:30.997Z,17.33
2017-11-08T00:37:58.457Z,17.07
2017-11-08T00:40:25.903Z,17.10
2017-11-08T00:45:42.024Z,19.10
2017-11-08T00:48:09.486Z,16.17
2017-11-08T00:50:36.945Z,18.37
2017-11-08T00:53:04.404Z,18.03
2017-11-08T00:55:31.870Z,17.27
2017-11-08T00:58:01.096Z,18.53
2017-11-08T01:00:28.550Z,16.20
2017-11-08T01:02:56.020Z,16.37
2017-11-08T01:05:23.475Z,18.00
2017-11-08T01:07:50.933Z,16.20
2017-11-08T01:10:18.398Z,16.33
2017-11-08T01:12:45.851Z,17.27
2017-11-08T01:15:13.299Z,15.67
2017-11-08T01:17:40.763Z,16.43
2017-11-08T01:20:08.214Z,16.80
2017-11-08T01:22:36.441Z,16.23
2017-11-08T01:25:03.932Z,16.60
2017-11-08T01:27:31.370Z,17.23
2017-11-08T01:29:58.823Z,16.63
2017-11-08T01:32:26.285Z,15.37
2017-11-08T01:34:53.752Z,17.93
2017-11-08T01:37:41.945Z,16.70
2017-11-08T01:40:10.159Z,16.87
2017-11-08T01:42:37.610Z,17.53
2017-11-08T01:45:07.847Z,18.27
2017-11-08T01:47:36.058Z,16.93
2017-11-08T01:50:03.526Z,15.80
2017-11-08T01:52:30.983Z,16.47
2017-11-08T01:54:59.138Z,16.57
2017-11-08T01:57:26.592Z,17.47
2017-11-08T01:59:54.052Z,16.70
2017-11-08T02:02:21.510Z,15.77
2017-11-08T02:04:48.978Z,15.73
2017-11-08T02:07:16.431Z,18.33
2017-11-08T02:09:43.878Z,16.50
2017-11-08T02:12:11.335Z,15.57
2017-11-08T02:14:39.568Z,17.90
2017-11-08T02:17:07.012Z,18.77
2017-11-08T02:19:34.489Z,16.23
2017-11-08T02:22:01.941Z,16.70
2017-11-08T02:24:29.396Z,17.43
2017-11-08T02:27:02.525Z,18.20
2017-11-08T02:29:29.977Z,17.07
2017-11-08T02:31:57.443Z,17.97
2017-11-08T02:34:24.908Z,16.67
2017-11-08T02:36:52.365Z,16.63
2017-11-08T02:39:19.813Z,18.30
2017-11-08T02:41:47.283Z,17.77
2017-11-08T02:44:14.742Z,18.93
2017-11-08T02:46:42.188Z,17.77
2017-11-08T02:49:09.653Z,17.07
2017-11-08T02:51:37.108Z,18.13
2017-11-08T02:54:04.570Z,17.63
2017-11-08T02:56:32.029Z,18.07
2017-11-08T02:58:59.490Z,17.50
2017-11-08T03:01:26.968Z,17.90
2017-11-08T03:03:54.417Z,18.70
2017-11-08T03:06:21.869Z,18.17
2017-11-08T03:08:49.321Z,18.73
2017-11-08T03:11:17.526Z,17.13
2017-11-08T03:13:44.984Z,18.50
2017-11-08T03:16:12.434Z,19.70
2017-11-08T03:18:40.657Z,19.43
2017-11-08T03:21:08.101Z,18.90
2017-11-08T03:23:35.563Z,19.20
2017-11-08T03:26:03.027Z,20.27
2017-11-08T03:28:30.476Z,19.73
2017-11-08T03:30:57.926Z,19.33
2017-11-08T03:33:26.155Z,18.83
2017-11-08T03:35:53.625Z,18.50
2017-11-08T03:38:21.073Z,18.80
2017-11-08T03:40:48.534Z,19.77
2017-11-08T03:43:16.000Z,19.83
2017-11-08T03:45:43.458Z,23.30
2017-11-08T03:48:10.910Z,19.57
2017-11-08T03:50:38.372Z,20.43
2017-11-08T03:53:05.846Z,21.20
2017-11-08T03:55:33.288Z,20.33
2017-11-08T03:58:00.763Z,19.93
2017-11-08T04:00:28.216Z,21.00
2017-11-08T04:02:55.666Z,20.63
2017-11-08T04:05:23.106Z,18.60
2017-11-08T04:07:51.345Z,22.30
2017-11-08T04:10:18.803Z,21.93
2017-11-08T04:12:46.254Z,22.87
2017-11-08T04:15:13.707Z,20.07
2017-11-08T04:17:41.151Z,20.33
2017-11-08T04:20:08.624Z,21.20
2017-11-08T04:22:36.063Z,23.00
2017-11-08T04:25:04.284Z,20.67
2017-11-08T04:27:31.758Z,21.73
2017-11-08T04:29:59.200Z,20.93
2017-11-08T04:32:26.648Z,24.33
2017-11-08T04:34:54.864Z,22.10
2017-11-08T04:37:22.318Z,22.40
2017-11-08T04:39:49.764Z,21.83
2017-11-08T04:42:17.225Z,22.97
2017-11-08T04:44:44.699Z,20.20
2017-11-08T04:47:12.141Z,21.10
2017-11-08T04:49:39.597Z,22.20
2017-11-08T04:52:07.815Z,21.13
2017-11-08T04:54:35.277Z,22.63
2017-11-08T04:57:02.731Z,21.63
2017-11-08T04:59:30.188Z,22.03
2017-11-08T05:01:57.645Z,22.40
2017-11-08T05:04:25.112Z,19.83
2017-11-08T05:06:52.568Z,22.17
2017-11-08T05:09:20.032Z,20.37
2017-11-08T05:11:47.494Z,20.87
2017-11-08T05:14:14.947Z,21.57
2017-11-08T05:16:42.402Z,20.33
2017-11-08T05:19:10.613Z,22.23
2017-11-08T05:21:38.061Z,23.73
2017-11-08T05:24:05.501Z,20.73
2017-11-08T05:26:33.745Z,22.07
2017-11-08T05:29:01.409Z,22.27
2017-11-08T05:31:28.849Z,23.47
2017-11-08T05:33:56.312Z,23.20
2017-11-08T05:36:23.775Z,23.40
2017-11-08T05:38:51.240Z,22.57
2017-11-08T05:41:19.469Z,22.87
2017-11-08T05:43:46.914Z,21.97
2017-11-08T05:46:14.368Z,22.73
2017-11-08T05:48:41.853Z,21.80
2017-11-08T05:51:09.307Z,23.17
2017-11-08T05:53:36.755Z,23.23
2017-11-08T05:56:04.207Z,24.40
2017-11-08T05:58:31.639Z,21.37
2017-11-08T06:00:59.108Z,22.67
2017-11-08T06:03:26.539Z,21.13
2017-11-08T06:05:55.463Z,22.20
2017-11-08T06:08:22.909Z,21.67
2017-11-08T06:10:51.152Z,19.97
2017-11-08T06:13:18.602Z,23.73
2017-11-08T06:15:46.061Z,20.33
2017-11-08T06:18:13.502Z,21.37
2017-11-08T06:20:40.956Z,23.97
2017-11-08T06:23:08.418Z,23.13
2017-11-08T06:25:35.866Z,23.37
2017-11-08T06:28:03.314Z,23.73
2017-11-08T06:30:31.577Z,23.03
2017-11-08T06:32:59.053Z,24.67
2017-11-08T06:35:26.589Z,25.27
2017-11-08T06:37:54.361Z,23.63
2017-11-08T06:40:21.794Z,24.53
2017-11-08T06:42:49.252Z,22.30
2017-11-08T06:45:16.720Z,23.93
2017-11-08T06:47:44.183Z,24.27
2017-11-08T06:50:11.633Z,23.37
2017-11-08T06:52:39.094Z,23.00
2017-11-08T06:55:06.542Z,22.87
2017-11-08T06:57:34.754Z,22.63
2017-11-08T07:00:02.231Z,22.97
2017-11-08T07:02:29.672Z,23.43
2017-11-08T07:04:57.232Z,22.43
2017-11-08T07:07:24.684Z,22.23
2017-11-08T07:09:52.135Z,20.53
2017-11-08T07:12:20.357Z,21.60
2017-11-08T07:14:47.831Z,22.90
2017-11-08T07:17:15.285Z,21.80
2017-11-08T07:19:42.724Z,21.97
2017-11-08T07:22:10.193Z,21.03
2017-11-08T07:24:37.629Z,23.20
2017-11-08T07:27:05.857Z,20.53
2017-11-08T07:29:33.318Z,22.33
2017-11-08T07:32:00.767Z,20.37
2017-11-08T07:34:28.226Z,20.87
2017-11-08T07:36:55.687Z,23.70
2017-11-08T07:39:23.145Z,23.37
2017-11-08T07:41:50.579Z,20.23
2017-11-08T07:44:18.796Z,19.90
2017-11-08T07:46:46.249Z,21.23
2017-11-08T07:49:13.714Z,21.30
2017-11-08T07:51:41.154Z,22.40
2017-11-08T07:54:11.426Z,21.80
2017-11-08T07:56:38.888Z,20.53
2017-11-08T07:59:06.350Z,21.47
2017-11-08T08:01:33.797Z,22.13
2017-11-08T08:04:01.249Z,20.77
2017-11-08T08:06:28.711Z,23.30
2017-11-08T08:08:56.175Z,23.23
2017-11-08T08:11:23.633Z,25.47
2017-11-08T08:13:51.078Z,26.17
2017-11-08T08:16:19.315Z,23.77
2017-11-08T08:18:46.756Z,26.53
2017-11-08T08:21:16.031Z,25.97
2017-11-08T08:23:43.481Z,24.00
2017-11-08T08:26:11.685Z,27.70
2017-11-08T08:28:39.159Z,25.80
2017-11-08T08:31:06.605Z,23.27
2017-11-08T08:33:34.065Z,26.43
2017-11-08T08:36:02.277Z,26.23
2017-11-08T08:38:29.752Z,24.33
2017-11-08T08:40:57.205Z,24.83
2017-11-08T08:43:24.638Z,28.37
2017-11-08T08:45:52.114Z,29.97
2017-11-08T08:48:19.569Z,27.47
2017-11-08T08:50:48.932Z,27.27
2017-11-08T08:53:16.387Z,29.67
2017-11-08T08:55:43.833Z,27.60
2017-11-08T08:58:11.342Z,26.53
2017-11-08T09:00:41.606Z,23.90
2017-11-08T09:03:09.089Z,34.03
2017-11-08T09:05:36.540Z,29.80
2017-11-08T09:08:03.982Z,31.67
2017-11-08T09:10:31.464Z,29.37
2017-11-08T09:12:58.924Z,32.10
2017-11-08T09:15:26.362Z,31.90
2017-11-08T09:17:53.929Z,31.70
2017-11-08T09:20:27.192Z,32.03
2017-11-08T09:22:55.493Z,32.20
2017-11-08T09:25:37.657Z,34.87
2017-11-08T09:28:05.099Z,30.47
2017-11-08T09:30:32.560Z,31.07
2017-11-08T09:33:00.005Z,35.63
2017-11-08T09:35:27.454Z,35.13
2017-11-08T09:38:00.481Z,37.13
2017-11-08T09:40:30.876Z,33.47
2017-11-08T09:42:58.332Z,36.17
2017-11-08T09:45:25.792Z,37.23
2017-11-08T09:47:53.236Z,33.40
2017-11-08T09:50:21.462Z,38.20
2017-11-08T09:52:48.916Z,41.43
2017-11-08T09:55:16.368Z,41.10
2017-11-08T09:57:43.825Z,38.97
2017-11-08T10:00:11.284Z,39.53
2017-11-08T10:02:38.762Z,40.63
2017-11-08T10:05:06.233Z,39.90
2017-11-08T10:07:33.686Z,38.23
2017-11-08T10:10:01.174Z,41.63
2017-11-08T10:12:28.594Z,40.33
2017-11-08T10:14:56.039Z,40.73
2017-11-08T10:17:24.275Z,42.57
2017-11-08T10:19:51.733Z,40.83
2017-11-08T10:22:19.213Z,41.57
2017-11-08T10:24:46.672Z,39.20
2017-11-08T10:27:14.144Z,39.10
2017-11-08T10:29:41.638Z,40.47
2017-11-08T10:32:09.866Z,40.47
2017-11-08T10:34:37.337Z,42.83
2017-11-08T10:37:04.806Z,41.47
2017-11-08T10:39:32.258Z,44.10
2017-11-08T10:44:27.118Z,43.70
2017-11-08T10:46:54.581Z,42.73
2017-11-08T10:49:22.056Z,38.63
2017-11-08T10:51:50.273Z,40.53
2017-11-08T10:54:17.711Z,42.17
2017-11-08T10:56:45.161Z,39.87
2017-11-08T10:59:19.180Z,41.20
2017-11-08T11:01:46.651Z,41.03
2017-11-08T11:04:14.097Z,41.43
2017-11-08T11:06:41.552Z,38.93
2017-11-08T11:09:08.991Z,42.27
2017-11-08T11:11:37.208Z,40.57
2017-11-08T11:14:10.472Z,43.87
2017-11-08T11:16:39.368Z,43.47
2017-11-08T11:19:12.614Z,42.17
2017-11-08T11:21:40.068Z,38.47
2017-11-08T11:24:12.337Z,41.60
2017-11-08T11:26:41.741Z,44.37
2017-11-08T11:29:11.564Z,41.80
2017-11-08T11:31:39.011Z,37.17
2017-11-08T11:34:06.484Z,42.80
2017-11-08T11:36:33.942Z,41.27
2017-11-08T11:39:01.401Z,42.27
2017-11-08T11:41:28.856Z,43.23
2017-11-08T11:43:56.302Z,42.43
2017-11-08T11:46:24.545Z,40.13
2017-11-08T11:48:55.195Z,43.77
2017-11-08T11:51:25.598Z,39.33
2017-11-08T11:53:53.046Z,43.33
2017-11-08T11:56:20.510Z,46.17
2017-11-08T11:58:47.961Z,46.03
2017-11-08T12:01:15.398Z,44.97
2017-11-08T12:03:43.639Z,44.63
2017-11-08T12:06:11.103Z,42.93
2017-11-08T12:08:38.535Z,42.47
2017-11-08T12:11:06.005Z,44.60
2017-11-08T12:13:33.457Z,45.23
2017-11-08T12:16:00.923Z,43.27
2017-11-08T12:18:28.379Z,42.70
2017-11-08T12:20:55.847Z,37.27
2017-11-08T12:23:23.282Z,41.87
2017-11-08T12:25:51.520Z,43.20
2017-11-08T12:28:18.997Z,41.07
2017-11-08T12:30:47.248Z,44.30
2017-11-08T12:33:14.707Z,44.33
2017-11-08T12:35:42.185Z,40.97
2017-11-08T12:38:09.650Z,38.93
2017-11-08T12:40:37.117Z,40.93
2017-11-08T12:43:04.589Z,38.43
2017-11-08T12:45:32.040Z,43.97
2017-11-08T12:47:59.498Z,41.37
2017-11-08T12:50:27.855Z,41.20
2017-11-08T12:52:55.318Z,39.37
2017-11-08T12:55:22.766Z,42.93
2017-11-08T12:57:50.976Z,36.57
2017-11-08T13:00:18.439Z,39.60
2017-11-08T13:02:46.668Z,36.27
2017-11-08T13:05:14.099Z,37.97
2017-11-08T13:07:41.569Z,41.63
2017-11-08T13:10:09.020Z,40.10
2017-11-08T13:12:36.498Z,39.70
2017-11-08T13:15:03.949Z,38.57
2017-11-08T13:17:31.399Z,40.30
2017-11-08T13:19:58.861Z,44.47
2017-11-08T13:22:26.347Z,38.93
2017-11-08T13:24:53.808Z,37.70
2017-11-08T13:27:21.281Z,41.53
2017-11-08T13:29:48.728Z,37.30
2017-11-08T13:32:16.180Z,37.43
2017-11-08T13:34:43.634Z,41.10
2017-11-08T13:37:11.099Z,37.73
2017-11-08T13:39:38.553Z,37.23
2017-11-08T13:42:08.773Z,37.23
2017-11-08T13:44:36.237Z,36.80
2017-11-08T13:47:03.701Z,36.33
2017-11-08T13:49:31.189Z,36.40
2017-11-08T13:51:58.654Z,38.23
2017-11-08T13:54:26.145Z,38.20
2017-11-08T13:56:53.611Z,35.33
2017-11-08T13:59:21.089Z,34.23
2017-11-08T14:01:49.322Z,37.23
2017-11-08T14:04:18.529Z,33.73
2017-11-08T14:06:45.993Z,35.40
2017-11-08T14:09:13.445Z,37.13
2017-11-08T14:11:40.913Z,33.13
2017-11-08T14:14:08.375Z,34.80
2017-11-08T14:16:35.854Z,35.33
2017-11-08T14:19:03.306Z,33.90
2017-11-08T14:21:30.751Z,38.97
2017-11-08T14:23:58.203Z,33.23
2017-11-08T14:26:25.657Z,34.73
2017-11-08T14:28:53.109Z,31.57
2017-11-08T14:31:21.345Z,34.10
2017-11-08T14:33:48.805Z,34.00
2017-11-08T14:36:16.272Z,31.77
2017-11-08T14:38:43.713Z,33.83
2017-11-08T14:41:11.175Z,33.20
2017-11-08T14:43:38.635Z,34.80
2017-11-08T14:46:06.099Z,31.10
2017-11-08T14:48:34.335Z,35.17
2017-11-08T14:51:01.793Z,31.67
2017-11-08T14:53:30.151Z,35.27
2017-11-08T14:55:57.616Z,32.67
2017-11-08T14:58:25.065Z,33.70
2017-11-08T15:00:52.541Z,34.17
2017-11-08T15:03:19.996Z,34.20
2017-11-08T15:05:47.457Z,31.07
2017-11-08T15:08:14.912Z,35.50
2017-11-08T15:10:42.359Z,34.03
2017-11-08T15:13:09.817Z,33.27
2017-11-08T15:15:37.268Z,32.30
2017-11-08T15:18:04.719Z,36.03
2017-11-08T15:20:33.040Z,34.17
2017-11-08T15:23:00.501Z,29.73
2017-11-08T15:25:27.955Z,33.57
2017-11-08T15:27:55.423Z,31.60
2017-11-08T15:30:27.679Z,32.17
2017-11-08T15:32:55.119Z,33.93
2017-11-08T15:35:23.342Z,32.37
2017-11-08T15:37:50.912Z,32.87
2017-11-08T15:40:23.944Z,32.03
2017-11-08T15:42:51.422Z,29.47
2017-11-08T15:45:19.654Z,28.23
2017-11-08T15:47:47.620Z,31.53
2017-11-08T15:50:23.504Z,27.70
2017-11-08T15:52:50.963Z,28.33
2017-11-08T15:55:18.419Z,29.77
2017-11-08T15:57:45.880Z,27.17
2017-11-08T16:00:13.344Z,30.30
2017-11-08T16:02:43.232Z,28.70
2017-11-08T16:05:10.684Z,30.27
2017-11-08T16:07:38.751Z,28.87
2017-11-08T16:10:06.248Z,29.33
2017-11-08T16:12:34.660Z,28.97
2017-11-08T16:15:03.229Z,28.47
2017-11-08T16:17:32.611Z,30.93
2017-11-08T16:20:17.136Z,30.00
2017-11-08T16:22:46.233Z,30.17
2017-11-08T16:25:14.513Z,28.40
2017-11-08T16:27:42.720Z,28.23
2017-11-08T16:30:10.168Z,30.30
2017-11-08T16:32:37.631Z,29.10
2017-11-08T16:35:05.101Z,28.97
2017-11-08T16:37:32.538Z,26.87
2017-11-08T16:40:00.757Z,30.30
2017-11-08T16:42:28.188Z,29.03
2017-11-08T16:44:56.399Z,29.37
2017-11-08T16:47:23.836Z,30.70
2017-11-08T16:49:51.296Z,31.13
2017-11-08T16:52:19.504Z,27.47
2017-11-08T16:54:46.976Z,29.53
2017-11-08T16:57:14.407Z,26.47
2017-11-08T16:59:41.875Z,29.27
2017-11-08T17:02:09.318Z,23.93
2017-11-08T17:04:37.546Z,32.72
2017-11-08T17:07:04.997Z,27.53
2017-11-08T17:09:32.460Z,29.33
2017-11-08T17:11:59.911Z,29.27
2017-11-08T17:14:27.436Z,28.80
2017-11-08T17:16:54.890Z,30.33
2017-11-08T17:19:22.347Z,26.00
2017-11-08T17:21:49.797Z,30.73
2017-11-08T17:24:17.359Z,30.63
2017-11-08T17:26:44.850Z,30.40
2017-11-08T17:29:14.234Z,29.20
2017-11-08T17:31:41.690Z,28.97
2017-11-08T17:34:09.145Z,26.60
2017-11-08T17:36:36.583Z,32.47
2017-11-08T17:39:04.053Z,29.13
2017-11-08T17:41:31.492Z,28.57
2017-11-08T17:43:59.703Z,31.47
2017-11-08T17:46:27.154Z,27.83
2017-11-08T17:48:54.603Z,30.80
2017-11-08T17:51:22.075Z,30.30
2017-11-08T17:53:50.284Z,28.87
2017-11-08T17:56:17.762Z,29.03
2017-11-08T17:58:45.206Z,29.90
2017-11-08T18:01:12.667Z,28.70
2017-11-08T18:03:40.131Z,25.90
2017-11-08T18:06:07.567Z,33.30
2017-11-08T18:08:35.006Z,28.20
2017-11-08T18:11:03.233Z,26.57
2017-11-08T18:13:30.675Z,27.37
2017-11-08T18:15:58.121Z,26.57
2017-11-08T18:18:25.580Z,29.00
2017-11-08T18:20:53.033Z,29.27
2017-11-08T18:23:22.011Z,27.50
2017-11-08T18:25:49.480Z,29.43
2017-11-08T18:28:16.920Z,27.03
2017-11-08T18:30:44.383Z,25.67
2017-11-08T18:33:11.838Z,31.30
2017-11-08T18:35:39.296Z,30.03
2017-11-08T18:38:06.743Z,29.03
2017-11-08T18:40:34.309Z,29.57
2017-11-08T18:43:01.767Z,27.50
2017-11-08T18:45:29.227Z,30.87
2017-11-08T18:47:56.681Z,28.03
2017-11-08T18:50:24.120Z,28.93
2017-11-08T18:52:52.372Z,29.10
2017-11-08T18:55:19.838Z,27.50
2017-11-08T18:57:47.272Z,28.57
2017-11-08T19:00:14.747Z,27.27
2017-11-08T19:02:42.205Z,26.90
2017-11-08T19:05:09.656Z,29.53
2017-11-08T19:07:37.111Z,28.20
2017-11-08T19:10:04.573Z,27.80
2017-11-08T19:12:32.031Z,27.83
2017-11-08T19:14:59.486Z,25.53
2017-11-08T19:17:26.930Z,25.93
2017-11-08T19:19:55.128Z,24.53
2017-11-08T19:22:22.600Z,26.60
2017-11-08T19:24:50.040Z,25.63
2017-11-08T19:27:18.261Z,26.93
2017-11-08T19:29:45.720Z,26.97
2017-11-08T19:32:13.170Z,26.13
2017-11-08T19:34:40.654Z,25.03
2017-11-08T19:37:08.096Z,25.07
2017-11-08T19:39:35.545Z,26.67
2017-11-08T19:42:02.995Z,24.53
2017-11-08T19:44:31.211Z,27.50
2017-11-08T19:46:58.719Z,25.30
2017-11-08T19:49:26.176Z,26.37
2017-11-08T19:51:53.631Z,26.90
2017-11-08T19:54:21.080Z,24.67
2017-11-08T19:56:48.530Z,25.50
2017-11-08T19:59:15.981Z,26.83
2017-11-08T20:01:43.435Z,26.33
2017-11-08T20:04:10.910Z,24.20
2017-11-08T20:06:38.352Z,26.70
2017-11-08T20:09:05.796Z,24.63
2017-11-08T20:11:34.007Z,25.73
2017-11-08T20:14:01.497Z,24.03
2017-11-08T20:16:28.945Z,23.40
2017-11-08T20:18:56.405Z,25.70
2017-11-08T20:21:23.870Z,24.13
2017-11-08T20:23:51.315Z,24.70
2017-11-08T20:26:18.773Z,25.43
2017-11-08T20:28:46.218Z,27.30
2017-11-08T20:31:14.428Z,27.47
2017-11-08T20:33:41.878Z,25.63
2017-11-08T20:36:09.329Z,29.92
2017-11-08T20:38:37.223Z,30.67
2017-11-08T20:41:04.678Z,29.00
2017-11-08T20:43:32.112Z,29.00
2017-11-08T20:46:00.325Z,30.20
2017-11-08T20:48:28.059Z,30.83
2017-11-08T20:50:55.496Z,35.90
2017-11-08T20:53:22.985Z,30.67
2017-11-08T20:55:51.191Z,30.13
2017-11-08T20:58:18.628Z,28.27
2017-11-08T21:00:46.857Z,28.53
2017-11-08T21:03:14.311Z,28.47
2017-11-08T21:05:41.768Z,31.70
2017-11-08T21:08:09.225Z,28.60
2017-11-08T21:10:36.669Z,28.03
2017-11-08T21:13:04.894Z,27.77
2017-11-08T21:15:32.357Z,27.40
2017-11-08T21:17:59.821Z,25.20
2017-11-08T21:20:27.271Z,26.97
2017-11-08T21:22:54.717Z,26.57
2017-11-08T21:25:22.179Z,27.83
2017-11-08T21:27:49.632Z,25.03
2017-11-08T21:30:17.080Z,26.13
2017-11-08T21:32:45.295Z,28.90
2017-11-08T21:35:12.755Z,28.07
2017-11-08T21:37:40.212Z,27.30
2017-11-08T21:40:07.664Z,27.47
2017-11-08T21:42:35.107Z,26.93
2017-11-08T21:45:03.324Z,29.80
2017-11-08T21:47:30.786Z,26.50
2017-11-08T21:49:58.227Z,26.53
2017-11-08T21:52:25.672Z,27.47
2017-11-08T21:54:53.883Z,25.57
2017-11-08T21:57:21.346Z,25.67
2017-11-08T21:59:48.788Z,24.93
2017-11-08T22:02:17.023Z,26.33
2017-11-08T22:04:44.478Z,25.67
2017-11-08T22:07:11.950Z,24.73
2017-11-08T22:09:39.398Z,24.57
2017-11-08T22:12:06.837Z,24.33
2017-11-08T22:14:34.291Z,24.90
2017-11-08T22:17:01.742Z,22.97
2017-11-08T22:19:29.975Z,24.33
2017-11-08T22:21:57.396Z,22.70
2017-11-08T22:24:24.867Z,22.97
2017-11-08T22:26:52.315Z,22.90
2017-11-08T22:29:19.761Z,25.80
2017-11-08T22:31:47.972Z,22.07
2017-11-08T22:34:15.426Z,23.47
2017-11-08T22:36:42.878Z,21.33
2017-11-08T22:39:11.096Z,25.27
2017-11-08T22:41:38.567Z,24.17
2017-11-08T22:44:06.024Z,24.50
2017-11-08T22:46:33.470Z,24.70
2017-11-08T22:49:00.919Z,24.87
2017-11-08T22:51:28.377Z,23.87
2017-11-08T22:53:55.838Z,24.23
2017-11-08T22:56:24.054Z,23.63
2017-11-08T22:58:51.512Z,23.43
2017-11-08T23:01:18.961Z,24.33
2017-11-08T23:03:46.400Z,24.93
2017-11-08T23:06:14.639Z,24.47
2017-11-08T23:08:42.067Z,24.50
2017-11-08T23:11:09.514Z,20.73
2017-11-08T23:13:36.972Z,24.47
2017-11-08T23:16:04.418Z,21.70
2017-11-08T23:18:32.633Z,21.23
2017-11-08T23:21:00.087Z,21.73
2017-11-08T23:23:27.540Z,21.87
2017-11-08T23:25:55.897Z,23.73
2017-11-08T23:28:23.361Z,21.33
2017-11-08T23:30:50.770Z,22.73
2017-11-08T23:33:18.237Z,22.73
2017-11-08T23:35:45.690Z,21.33
2017-11-08T23:38:13.128Z,23.20
2017-11-08T23:40:41.343Z,23.47
2017-11-08T23:43:08.771Z,22.70
2017-11-08T23:45:37.073Z,20.70
2017-11-08T23:48:04.529Z,21.70
2017-11-08T23:50:31.998Z,21.13
2017-11-08T23:52:59.458Z,22.97
2017-11-08T23:55:26.900Z,22.93
2017-11-08T23:57:55.136Z,22.37
